Terminal Aerodrome Forecast
Issued by NWS

Home | Current Version | Previous Version | Text Only | Print | Product List | Glossary On
Versions: 1 2 3 4 5 6 7 8 9 10 11 12 13 14
000
FTUS42 KTAE 010900 AAA
TAFABY
TAF AMD
KABY 010910Z 0109/0206 01004KT P6SM SCT008 BKN250
      TEMPO 0109/0112 BKN008 OVC250
     FM012000 VRB05KT P6SM VCTS SCT050CB SCT250
     FM020100 VRB03KT P6SM SCT250=

USA.gov is the U.S. government's official web portal to all federal, state and local government web resources and services.